sensor_id;sensor_type;location;lat;lon;timestamp;pressure;altitude;pressure_sealevel;temperature;humidity
75208;BME280;63795;55.684;37.864;2023-08-07T00:04:31;99837.50;;;22.97;65.69
75208;BME280;63795;55.684;37.864;2023-08-07T00:09:31;99843.75;;;22.95;64.95
75208;BME280;63795;55.684;37.864;2023-08-07T00:14:32;99825.78;;;22.91;65.01
75208;BME280;63795;55.684;37.864;2023-08-07T00:19:32;99830.47;;;22.89;65.46
75208;BME280;63795;55.684;37.864;2023-08-07T00:24:32;99842.69;;;22.83;65.46
75208;BME280;63795;55.684;37.864;2023-08-07T00:29:33;99840.00;;;22.80;65.28
75208;BME280;63795;55.684;37.864;2023-08-07T00:34:34;99837.59;;;22.78;65.48
75208;BME280;63795;55.684;37.864;2023-08-07T00:39:34;99841.47;;;22.75;65.64
75208;BME280;63795;55.684;37.864;2023-08-07T00:44:35;99831.88;;;22.69;66.22
75208;BME280;63795;55.684;37.864;2023-08-07T00:49:35;99831.44;;;22.62;65.84
75208;BME280;63795;55.684;37.864;2023-08-07T00:54:37;99830.63;;;22.61;65.25
75208;BME280;63795;55.684;37.864;2023-08-07T00:59:38;99821.34;;;22.57;66.03
75208;BME280;63795;55.684;37.864;2023-08-07T01:04:40;99817.94;;;22.59;64.53
75208;BME280;63795;55.684;37.864;2023-08-07T01:09:40;99818.59;;;22.54;65.57
75208;BME280;63795;55.684;37.864;2023-08-07T01:14:49;99808.19;;;22.47;66.39
75208;BME280;63795;55.684;37.864;2023-08-07T01:19:51;99803.94;;;22.34;67.15
75208;BME280;63795;55.684;37.864;2023-08-07T01:24:55;99806.06;;;22.24;67.22
75208;BME280;63795;55.684;37.864;2023-08-07T01:35:20;99797.44;;;22.15;67.56
75208;BME280;63795;55.684;37.864;2023-08-07T01:40:22;99791.84;;;22.12;67.53
75208;BME280;63795;55.684;37.864;2023-08-07T01:45:25;99794.09;;;22.08;67.69
75208;BME280;63795;55.684;37.864;2023-08-07T01:50:26;99791.06;;;22.02;67.68
75208;BME280;63795;55.684;37.864;2023-08-07T01:55:27;99796.53;;;22.00;68.17
75208;BME280;63795;55.684;37.864;2023-08-07T02:00:27;99793.47;;;21.94;67.67
75208;BME280;63795;55.684;37.864;2023-08-07T02:05:28;99793.66;;;21.91;67.78
75208;BME280;63795;55.684;37.864;2023-08-07T02:10:28;99792.41;;;21.83;68.38
75208;BME280;63795;55.684;37.864;2023-08-07T02:15:28;99790.97;;;21.78;67.97
75208;BME280;63795;55.684;37.864;2023-08-07T02:20:29;99785.50;;;21.71;69.24
75208;BME280;63795;55.684;37.864;2023-08-07T02:25:29;99790.47;;;21.71;68.68
75208;BME280;63795;55.684;37.864;2023-08-07T02:30:33;99803.81;;;21.68;69.06
75208;BME280;63795;55.684;37.864;2023-08-07T02:35:33;99791.63;;;21.64;69.06
75208;BME280;63795;55.684;37.864;2023-08-07T02:40:34;99791.97;;;21.66;68.72
75208;BME280;63795;55.684;37.864;2023-08-07T02:45:34;99791.16;;;21.66;69.54
75208;BME280;63795;55.684;37.864;2023-08-07T02:50:35;99788.59;;;21.68;68.83
75208;BME280;63795;55.684;37.864;2023-08-07T02:55:36;99790.47;;;21.71;68.85
75208;BME280;63795;55.684;37.864;2023-08-07T03:00:36;99801.69;;;21.78;68.30
75208;BME280;63795;55.684;37.864;2023-08-07T03:05:37;99788.84;;;21.79;68.63
75208;BME280;63795;55.684;37.864;2023-08-07T03:10:37;99800.59;;;21.84;68.17
75208;BME280;63795;55.684;37.864;2023-08-07T03:15:37;99794.47;;;21.91;67.97
75208;BME280;63795;55.684;37.864;2023-08-07T03:20:39;99792.03;;;21.99;67.52
75208;BME280;63795;55.684;37.864;2023-08-07T03:25:39;99789.91;;;22.09;67.34
75208;BME280;63795;55.684;37.864;2023-08-07T03:30:40;99782.03;;;22.18;66.87
75208;BME280;63795;55.684;37.864;2023-08-07T03:35:40;99780.84;;;22.25;66.04
75208;BME280;63795;55.684;37.864;2023-08-07T03:40:41;99790.22;;;22.43;65.82
75208;BME280;63795;55.684;37.864;2023-08-07T03:45:41;99795.63;;;22.59;64.40
75208;BME280;63795;55.684;37.864;2023-08-07T03:50:42;99790.75;;;22.74;63.50
75208;BME280;63795;55.684;37.864;2023-08-07T03:55:42;99781.31;;;22.89;63.50
75208;BME280;63795;55.684;37.864;2023-08-07T04:00:45;99787.34;;;23.00;62.83
75208;BME280;63795;55.684;37.864;2023-08-07T04:05:45;99782.25;;;23.09;62.26
75208;BME280;63795;55.684;37.864;2023-08-07T04:10:57;99784.00;;;23.16;62.20
75208;BME280;63795;55.684;37.864;2023-08-07T04:15:58;99791.19;;;23.20;61.66
75208;BME280;63795;55.684;37.864;2023-08-07T04:21:01;99790.38;;;23.20;61.52
75208;BME280;63795;55.684;37.864;2023-08-07T04:26:01;99790.38;;;23.20;61.50
75208;BME280;63795;55.684;37.864;2023-08-07T04:31:02;99795.00;;;23.26;61.04
75208;BME280;63795;55.684;37.864;2023-08-07T04:36:03;99790.59;;;23.31;60.89
75208;BME280;63795;55.684;37.864;2023-08-07T04:41:03;99786.03;;;23.39;60.79
75208;BME280;63795;55.684;37.864;2023-08-07T04:46:04;99787.56;;;23.49;60.26
75208;BME280;63795;55.684;37.864;2023-08-07T04:51:04;99787.69;;;23.54;59.53
75208;BME280;63795;55.684;37.864;2023-08-07T04:56:05;99793.66;;;23.65;59.37
75208;BME280;63795;55.684;37.864;2023-08-07T05:01:05;99783.09;;;23.77;58.94
75208;BME280;63795;55.684;37.864;2023-08-07T05:06:06;99782.28;;;23.91;58.15
75208;BME280;63795;55.684;37.864;2023-08-07T05:11:07;99777.84;;;24.05;57.94
75208;BME280;63795;55.684;37.864;2023-08-07T05:16:07;99769.31;;;24.16;57.58
75208;BME280;63795;55.684;37.864;2023-08-07T05:21:08;99765.59;;;24.30;56.58
75208;BME280;63795;55.684;37.864;2023-08-07T05:26:09;99760.97;;;24.38;56.46
75208;BME280;63795;55.684;37.864;2023-08-07T05:31:09;99771.72;;;24.52;56.12
75208;BME280;63795;55.684;37.864;2023-08-07T05:36:10;99765.88;;;24.67;55.71
75208;BME280;63795;55.684;37.864;2023-08-07T05:41:10;99771.44;;;24.85;54.65
75208;BME280;63795;55.684;37.864;2023-08-07T05:46:11;99765.47;;;24.94;54.39
75208;BME280;63795;55.684;37.864;2023-08-07T05:51:11;99762.44;;;25.03;53.45
75208;BME280;63795;55.684;37.864;2023-08-07T05:56:12;99744.59;;;25.10;52.95
75208;BME280;63795;55.684;37.864;2023-08-07T06:01:12;99745.72;;;25.18;52.50
75208;BME280;63795;55.684;37.864;2023-08-07T06:06:14;99738.03;;;25.35;51.72
75208;BME280;63795;55.684;37.864;2023-08-07T06:11:15;99741.13;;;25.52;51.73
75208;BME280;63795;55.684;37.864;2023-08-07T06:16:15;99737.81;;;25.64;50.79
75208;BME280;63795;55.684;37.864;2023-08-07T06:21:16;99735.06;;;25.81;49.95
75208;BME280;63795;55.684;37.864;2023-08-07T06:26:16;99733.72;;;26.07;48.90
75208;BME280;63795;55.684;37.864;2023-08-07T06:31:18;99733.81;;;26.55;47.27
75208;BME280;63795;55.684;37.864;2023-08-07T06:36:18;99743.63;;;27.11;46.90
75208;BME280;63795;55.684;37.864;2023-08-07T06:41:18;99743.84;;;27.77;45.34
75208;BME280;63795;55.684;37.864;2023-08-07T06:46:19;99739.34;;;28.21;44.24
75208;BME280;63795;55.684;37.864;2023-08-07T06:51:24;99734.25;;;28.71;42.72
75208;BME280;63795;55.684;37.864;2023-08-07T06:56:24;99725.44;;;28.82;42.14
75208;BME280;63795;55.684;37.864;2023-08-07T07:01:25;99723.75;;;29.09;41.11
75208;BME280;63795;55.684;37.864;2023-08-07T07:06:25;99721.72;;;29.45;40.41
75208;BME280;63795;55.684;37.864;2023-08-07T07:11:26;99725.72;;;29.82;40.70
75208;BME280;63795;55.684;37.864;2023-08-07T07:16:26;99719.13;;;29.82;40.98
75208;BME280;63795;55.684;37.864;2023-08-07T07:21:27;99719.53;;;29.56;39.34
75208;BME280;63795;55.684;37.864;2023-08-07T07:26:27;99717.53;;;29.34;39.80
75208;BME280;63795;55.684;37.864;2023-08-07T07:31:28;99721.00;;;29.79;39.26
75208;BME280;63795;55.684;37.864;2023-08-07T07:36:28;99724.75;;;29.69;38.75
75208;BME280;63795;55.684;37.864;2023-08-07T07:41:29;99725.53;;;29.28;38.96
75208;BME280;63795;55.684;37.864;2023-08-07T07:46:29;99711.94;;;29.42;38.67
75208;BME280;63795;55.684;37.864;2023-08-07T07:51:31;99706.75;;;29.13;38.99
75208;BME280;63795;55.684;37.864;2023-08-07T07:56:32;99705.44;;;29.14;38.91
75208;BME280;63795;55.684;37.864;2023-08-07T08:01:32;99696.97;;;29.51;39.33
75208;BME280;63795;55.684;37.864;2023-08-07T08:06:33;99704.31;;;30.04;37.55
75208;BME280;63795;55.684;37.864;2023-08-07T08:11:33;99703.16;;;29.83;36.91
75208;BME280;63795;55.684;37.864;2023-08-07T08:16:34;99682.88;;;29.55;37.10
75208;BME280;63795;55.684;37.864;2023-08-07T08:21:34;99684.78;;;29.47;37.21
75208;BME280;63795;55.684;37.864;2023-08-07T08:26:34;99675.31;;;29.35;36.95
75208;BME280;63795;55.684;37.864;2023-08-07T08:31:35;99689.47;;;29.61;37.48
75208;BME280;63795;55.684;37.864;2023-08-07T08:36:35;99677.34;;;29.87;37.22
75208;BME280;63795;55.684;37.864;2023-08-07T08:41:36;99671.09;;;30.31;36.30
75208;BME280;63795;55.684;37.864;2023-08-07T08:46:38;99665.56;;;30.52;36.27
75208;BME280;63795;55.684;37.864;2023-08-07T08:51:40;99659.88;;;30.59;35.16
75208;BME280;63795;55.684;37.864;2023-08-07T08:56:41;99658.22;;;30.64;36.42
75208;BME280;63795;55.684;37.864;2023-08-07T09:01:42;99663.34;;;31.00;35.61
75208;BME280;63795;55.684;37.864;2023-08-07T09:06:43;99652.59;;;31.27;35.13
75208;BME280;63795;55.684;37.864;2023-08-07T09:11:45;99650.53;;;31.03;34.65
75208;BME280;63795;55.684;37.864;2023-08-07T09:16:49;99641.69;;;30.90;34.13
75208;BME280;63795;55.684;37.864;2023-08-07T09:21:50;99638.19;;;30.92;35.03
75208;BME280;63795;55.684;37.864;2023-08-07T09:26:51;99636.94;;;31.43;33.96
75208;BME280;63795;55.684;37.864;2023-08-07T09:31:54;99631.41;;;31.40;33.31
75208;BME280;63795;55.684;37.864;2023-08-07T09:36:54;99628.03;;;31.49;33.98
75208;BME280;63795;55.684;37.864;2023-08-07T09:41:55;99617.31;;;31.38;33.47
75208;BME280;63795;55.684;37.864;2023-08-07T09:46:55;99623.84;;;31.07;33.51
75208;BME280;63795;55.684;37.864;2023-08-07T09:51:56;99615.69;;;31.19;32.54
75208;BME280;63795;55.684;37.864;2023-08-07T09:56:56;99612.19;;;31.57;32.66
75208;BME280;63795;55.684;37.864;2023-08-07T10:01:57;99622.72;;;31.66;32.80
75208;BME280;63795;55.684;37.864;2023-08-07T10:06:59;99600.47;;;31.57;32.30
75208;BME280;63795;55.684;37.864;2023-08-07T10:12:01;99603.50;;;31.52;32.32
75208;BME280;63795;55.684;37.864;2023-08-07T10:17:02;99580.03;;;31.33;32.59
75208;BME280;63795;55.684;37.864;2023-08-07T10:22:05;99588.38;;;31.48;32.88
75208;BME280;63795;55.684;37.864;2023-08-07T10:27:06;99580.13;;;31.91;33.00
75208;BME280;63795;55.684;37.864;2023-08-07T10:32:09;99587.88;;;32.20;32.04
75208;BME280;63795;55.684;37.864;2023-08-07T10:37:42;99581.09;;;32.25;31.99
75208;BME280;63795;55.684;37.864;2023-08-07T10:48:12;99559.88;;;32.32;32.44
75208;BME280;63795;55.684;37.864;2023-08-07T10:53:40;99560.34;;;32.49;31.88
75208;BME280;63795;55.684;37.864;2023-08-07T10:58:42;99551.97;;;32.67;31.99
75208;BME280;63795;55.684;37.864;2023-08-07T11:03:43;99558.50;;;32.73;31.50
75208;BME280;63795;55.684;37.864;2023-08-07T11:08:43;99548.03;;;32.51;31.60
75208;BME280;63795;55.684;37.864;2023-08-07T11:13:44;99531.69;;;32.89;31.13
75208;BME280;63795;55.684;37.864;2023-08-07T11:18:45;99531.53;;;33.08;31.03
75208;BME280;63795;55.684;37.864;2023-08-07T11:23:45;99525.69;;;33.70;30.87
75208;BME280;63795;55.684;37.864;2023-08-07T11:28:46;99521.31;;;33.42;30.17
75208;BME280;63795;55.684;37.864;2023-08-07T11:33:50;99512.34;;;33.07;31.06
75208;BME280;63795;55.684;37.864;2023-08-07T11:38:51;99507.34;;;33.15;31.27
75208;BME280;63795;55.684;37.864;2023-08-07T11:43:52;99506.41;;;33.61;30.59
75208;BME280;63795;55.684;37.864;2023-08-07T11:48:52;99507.22;;;34.10;30.53
75208;BME280;63795;55.684;37.864;2023-08-07T11:53:55;99497.69;;;34.25;30.21
75208;BME280;63795;55.684;37.864;2023-08-07T11:58:57;99496.41;;;34.92;29.60
75208;BME280;63795;55.684;37.864;2023-08-07T12:09:08;99485.28;;;33.91;29.86
75208;BME280;63795;55.684;37.864;2023-08-07T12:14:16;99469.59;;;33.96;29.37
75208;BME280;63795;55.684;37.864;2023-08-07T12:19:17;99456.81;;;34.21;29.15
75208;BME280;63795;55.684;37.864;2023-08-07T12:24:19;99459.28;;;34.38;28.80
75208;BME280;63795;55.684;37.864;2023-08-07T12:29:20;99466.44;;;34.22;29.79
75208;BME280;63795;55.684;37.864;2023-08-07T12:34:21;99450.19;;;33.93;29.66
75208;BME280;63795;55.684;37.864;2023-08-07T12:39:21;99441.16;;;33.42;30.24
75208;BME280;63795;55.684;37.864;2023-08-07T12:44:22;99437.78;;;33.38;30.83
75208;BME280;63795;55.684;37.864;2023-08-07T12:49:23;99432.13;;;33.40;30.70
75208;BME280;63795;55.684;37.864;2023-08-07T12:54:24;99413.41;;;33.09;30.91
75208;BME280;63795;55.684;37.864;2023-08-07T12:59:25;99417.47;;;33.47;30.89
75208;BME280;63795;55.684;37.864;2023-08-07T13:04:25;99419.00;;;33.69;30.03
75208;BME280;63795;55.684;37.864;2023-08-07T13:09:26;99403.59;;;33.27;30.78
75208;BME280;63795;55.684;37.864;2023-08-07T13:14:27;99395.56;;;33.07;31.30
75208;BME280;63795;55.684;37.864;2023-08-07T13:19:27;99397.59;;;33.12;31.74
75208;BME280;63795;55.684;37.864;2023-08-07T13:24:28;99388.50;;;33.03;31.27
75208;BME280;63795;55.684;37.864;2023-08-07T13:29:28;99373.84;;;32.35;32.23
75208;BME280;63795;55.684;37.864;2023-08-07T13:34:30;99385.47;;;31.94;32.34
75208;BME280;63795;55.684;37.864;2023-08-07T13:39:30;99360.78;;;31.50;33.33
75208;BME280;63795;55.684;37.864;2023-08-07T13:44:31;99371.75;;;31.31;33.38
75208;BME280;63795;55.684;37.864;2023-08-07T13:49:32;99358.22;;;31.15;33.81
75208;BME280;63795;55.684;37.864;2023-08-07T13:54:33;99353.03;;;31.08;34.24
75208;BME280;63795;55.684;37.864;2023-08-07T13:59:33;99335.09;;;30.98;34.46
75208;BME280;63795;55.684;37.864;2023-08-07T14:04:34;99332.63;;;30.89;34.64
75208;BME280;63795;55.684;37.864;2023-08-07T14:09:34;99342.47;;;30.73;34.95
75208;BME280;63795;55.684;37.864;2023-08-07T14:14:35;99321.94;;;30.60;35.65
75208;BME280;63795;55.684;37.864;2023-08-07T14:19:35;99311.34;;;30.57;35.54
75208;BME280;63795;55.684;37.864;2023-08-07T14:24:36;99302.00;;;30.59;35.92
75208;BME280;63795;55.684;37.864;2023-08-07T14:29:36;99298.81;;;30.44;35.53
75208;BME280;63795;55.684;37.864;2023-08-07T14:34:36;99307.69;;;30.38;35.98
75208;BME280;63795;55.684;37.864;2023-08-07T14:39:37;99291.41;;;30.24;36.50
75208;BME280;63795;55.684;37.864;2023-08-07T14:44:37;99292.59;;;30.15;36.40
75208;BME280;63795;55.684;37.864;2023-08-07T14:49:38;99276.56;;;30.03;36.88
75208;BME280;63795;55.684;37.864;2023-08-07T14:54:38;99261.09;;;29.90;36.95
75208;BME280;63795;55.684;37.864;2023-08-07T14:59:39;99280.34;;;29.98;37.11
75208;BME280;63795;55.684;37.864;2023-08-07T15:04:39;99285.66;;;30.00;36.92
75208;BME280;63795;55.684;37.864;2023-08-07T15:09:39;99285.09;;;30.01;37.15
75208;BME280;63795;55.684;37.864;2023-08-07T15:14:40;99286.94;;;29.86;36.86
75208;BME280;63795;55.684;37.864;2023-08-07T15:19:40;99287.47;;;29.84;37.09
75208;BME280;63795;55.684;37.864;2023-08-07T15:24:41;99265.59;;;29.72;38.26
75208;BME280;63795;55.684;37.864;2023-08-07T15:29:44;99267.75;;;29.72;37.48
75208;BME280;63795;55.684;37.864;2023-08-07T15:34:46;99267.75;;;29.72;38.05
75208;BME280;63795;55.684;37.864;2023-08-07T15:39:48;99240.84;;;29.55;38.63
75208;BME280;63795;55.684;37.864;2023-08-07T15:44:48;99247.09;;;29.46;38.60
75208;BME280;63795;55.684;37.864;2023-08-07T15:49:49;99241.63;;;29.36;38.93
75208;BME280;63795;55.684;37.864;2023-08-07T15:54:49;99247.88;;;29.27;39.23
75208;BME280;63795;55.684;37.864;2023-08-07T15:59:50;99241.31;;;29.21;39.12
75208;BME280;63795;55.684;37.864;2023-08-07T16:04:50;99244.56;;;29.12;39.26
75208;BME280;63795;55.684;37.864;2023-08-07T16:09:51;99239.13;;;29.03;39.97
75208;BME280;63795;55.684;37.864;2023-08-07T16:14:52;99244.00;;;28.95;40.39
75208;BME280;63795;55.684;37.864;2023-08-07T16:19:52;99233.94;;;28.91;40.02
75208;BME280;63795;55.684;37.864;2023-08-07T16:24:53;99216.19;;;28.89;40.37
75208;BME280;63795;55.684;37.864;2023-08-07T16:29:53;99221.38;;;28.77;40.36
75208;BME280;63795;55.684;37.864;2023-08-07T16:34:54;99230.25;;;28.66;40.90
75208;BME280;63795;55.684;37.864;2023-08-07T16:39:54;99222.91;;;28.54;41.02
75208;BME280;63795;55.684;37.864;2023-08-07T16:44:55;99215.84;;;28.44;41.09
75208;BME280;63795;55.684;37.864;2023-08-07T16:49:56;99217.28;;;28.37;41.39
75208;BME280;63795;55.684;37.864;2023-08-07T16:54:57;99214.50;;;28.21;41.85
75208;BME280;63795;55.684;37.864;2023-08-07T16:59:58;99220.19;;;28.08;42.42
75208;BME280;63795;55.684;37.864;2023-08-07T17:04:58;99204.38;;;27.98;42.72
75208;BME280;63795;55.684;37.864;2023-08-07T17:09:59;99210.25;;;27.87;42.69
75208;BME280;63795;55.684;37.864;2023-08-07T17:15:00;99216.19;;;27.75;43.57
75208;BME280;63795;55.684;37.864;2023-08-07T17:20:01;99215.75;;;27.60;43.56
75208;BME280;63795;55.684;37.864;2023-08-07T17:25:02;99212.91;;;27.49;43.77
75208;BME280;63795;55.684;37.864;2023-08-07T17:30:02;99223.03;;;27.37;44.55
75208;BME280;63795;55.684;37.864;2023-08-07T17:35:03;99224.09;;;27.29;44.32
75208;BME280;63795;55.684;37.864;2023-08-07T17:40:04;99210.94;;;27.17;44.75
75208;BME280;63795;55.684;37.864;2023-08-07T17:45:06;99209.13;;;27.08;44.90
75208;BME280;63795;55.684;37.864;2023-08-07T17:50:07;99218.97;;;27.00;45.01
75208;BME280;63795;55.684;37.864;2023-08-07T17:55:09;99208.94;;;26.89;45.12
75208;BME280;63795;55.684;37.864;2023-08-07T18:00:12;99212.94;;;26.81;44.88
75208;BME280;63795;55.684;37.864;2023-08-07T18:05:16;99208.47;;;26.74;45.54
75208;BME280;63795;55.684;37.864;2023-08-07T18:10:16;99215.06;;;26.64;45.64
75208;BME280;63795;55.684;37.864;2023-08-07T18:15:17;99204.00;;;26.57;45.76
75208;BME280;63795;55.684;37.864;2023-08-07T18:20:18;99206.91;;;26.51;45.97
75208;BME280;63795;55.684;37.864;2023-08-07T18:25:18;99227.25;;;26.46;46.36
75208;BME280;63795;55.684;37.864;2023-08-07T18:30:19;99231.25;;;26.37;46.05
75208;BME280;63795;55.684;37.864;2023-08-07T18:35:19;99241.84;;;26.29;46.47
75208;BME280;63795;55.684;37.864;2023-08-07T18:40:20;99237.88;;;26.27;46.40
75208;BME280;63795;55.684;37.864;2023-08-07T18:45:20;99238.38;;;26.20;46.63
75208;BME280;63795;55.684;37.864;2023-08-07T18:50:21;99244.75;;;26.13;46.73
75208;BME280;63795;55.684;37.864;2023-08-07T18:55:22;99248.44;;;26.07;47.07
75208;BME280;63795;55.684;37.864;2023-08-07T19:00:23;99243.66;;;25.99;46.83
75208;BME280;63795;55.684;37.864;2023-08-07T19:05:23;99240.22;;;25.95;47.41
75208;BME280;63795;55.684;37.864;2023-08-07T19:10:24;99238.63;;;25.88;47.54
75208;BME280;63795;55.684;37.864;2023-08-07T19:15:24;99224.09;;;25.77;47.76
75208;BME280;63795;55.684;37.864;2023-08-07T19:20:25;99221.97;;;25.67;49.09
75208;BME280;63795;55.684;37.864;2023-08-07T19:25:25;99216.69;;;25.54;49.26
75208;BME280;63795;55.684;37.864;2023-08-07T19:30:26;99209.81;;;25.46;49.40
75208;BME280;63795;55.684;37.864;2023-08-07T19:35:27;99198.16;;;25.35;48.97
75208;BME280;63795;55.684;37.864;2023-08-07T19:40:28;99204.16;;;25.20;49.87
75208;BME280;63795;55.684;37.864;2023-08-07T19:45:29;99197.00;;;25.05;51.09
75208;BME280;63795;55.684;37.864;2023-08-07T19:50:29;99195.09;;;24.91;51.29
75208;BME280;63795;55.684;37.864;2023-08-07T19:55:30;99185.03;;;24.81;51.85
75208;BME280;63795;55.684;37.864;2023-08-07T20:00:30;99182.81;;;24.65;52.19
75208;BME280;63795;55.684;37.864;2023-08-07T20:05:31;99183.53;;;24.48;53.27
75208;BME280;63795;55.684;37.864;2023-08-07T20:10:31;99177.44;;;24.41;53.42
75208;BME280;63795;55.684;37.864;2023-08-07T20:15:32;99157.34;;;24.32;53.45
75208;BME280;63795;55.684;37.864;2023-08-07T20:20:32;99156.50;;;24.20;54.15
75208;BME280;63795;55.684;37.864;2023-08-07T20:25:33;99143.53;;;24.10;54.99
75208;BME280;63795;55.684;37.864;2023-08-07T20:30:33;99124.72;;;24.00;55.17
75208;BME280;63795;55.684;37.864;2023-08-07T20:35:34;99113.63;;;23.93;54.95
75208;BME280;63795;55.684;37.864;2023-08-07T20:40:34;99127.25;;;23.87;55.53
75208;BME280;63795;55.684;37.864;2023-08-07T20:45:35;99130.66;;;23.80;55.96
75208;BME280;63795;55.684;37.864;2023-08-07T20:50:35;99148.44;;;23.67;56.94
75208;BME280;63795;55.684;37.864;2023-08-07T20:55:35;99149.94;;;23.57;57.60
75208;BME280;63795;55.684;37.864;2023-08-07T21:00:36;99139.03;;;23.47;57.41
75208;BME280;63795;55.684;37.864;2023-08-07T21:05:37;99145.06;;;23.43;57.82
75208;BME280;63795;55.684;37.864;2023-08-07T21:10:37;99147.69;;;23.41;58.04
75208;BME280;63795;55.684;37.864;2023-08-07T21:15:38;99132.88;;;23.34;57.95
75208;BME280;63795;55.684;37.864;2023-08-07T21:20:38;99133.84;;;23.31;58.54
75208;BME280;63795;55.684;37.864;2023-08-07T21:25:39;99123.03;;;23.26;58.07
75208;BME280;63795;55.684;37.864;2023-08-07T21:30:39;99117.25;;;23.26;58.50
75208;BME280;63795;55.684;37.864;2023-08-07T21:35:43;99112.47;;;23.23;58.21
75208;BME280;63795;55.684;37.864;2023-08-07T21:40:44;99113.53;;;23.20;57.99
75208;BME280;63795;55.684;37.864;2023-08-07T21:45:44;99113.22;;;23.18;57.67
75208;BME280;63795;55.684;37.864;2023-08-07T21:50:45;99117.69;;;23.19;57.44
75208;BME280;63795;55.684;37.864;2023-08-07T21:55:45;99120.09;;;23.20;57.22
75208;BME280;63795;55.684;37.864;2023-08-07T22:00:48;99106.59;;;23.12;57.76
75208;BME280;63795;55.684;37.864;2023-08-07T22:05:50;99113.47;;;23.14;57.23
75208;BME280;63795;55.684;37.864;2023-08-07T22:10:51;99113.44;;;23.09;57.41
75208;BME280;63795;55.684;37.864;2023-08-07T22:15:51;99109.44;;;23.06;57.18
75208;BME280;63795;55.684;37.864;2023-08-07T22:20:52;99116.47;;;23.00;57.39
75208;BME280;63795;55.684;37.864;2023-08-07T22:25:52;99143.28;;;23.00;57.53
75208;BME280;63795;55.684;37.864;2023-08-07T22:30:53;99164.53;;;22.97;57.09
75208;BME280;63795;55.684;37.864;2023-08-07T22:35:53;99173.72;;;22.96;57.00
75208;BME280;63795;55.684;37.864;2023-08-07T22:40:54;99170.59;;;22.99;56.82
75208;BME280;63795;55.684;37.864;2023-08-07T22:45:55;99178.50;;;22.99;56.78
75208;BME280;63795;55.684;37.864;2023-08-07T22:50:55;99151.91;;;22.95;57.11
75208;BME280;63795;55.684;37.864;2023-08-07T22:55:56;99137.09;;;22.87;57.42
75208;BME280;63795;55.684;37.864;2023-08-07T23:00:56;99140.72;;;22.82;57.38
75208;BME280;63795;55.684;37.864;2023-08-07T23:05:57;99130.09;;;22.73;57.85
75208;BME280;63795;55.684;37.864;2023-08-07T23:10:57;99122.47;;;22.70;57.61
75208;BME280;63795;55.684;37.864;2023-08-07T23:15:58;99133.44;;;22.66;57.83
75208;BME280;63795;55.684;37.864;2023-08-07T23:20:58;99117.34;;;22.60;58.83
75208;BME280;63795;55.684;37.864;2023-08-07T23:25:59;99119.94;;;22.58;58.33
75208;BME280;63795;55.684;37.864;2023-08-07T23:30:59;99109.88;;;22.53;58.60
75208;BME280;63795;55.684;37.864;2023-08-07T23:36:00;99093.47;;;22.45;59.53
75208;BME280;63795;55.684;37.864;2023-08-07T23:41:01;99093.41;;;22.39;59.36
75208;BME280;63795;55.684;37.864;2023-08-07T23:46:01;99101.94;;;22.28;59.57
75208;BME280;63795;55.684;37.864;2023-08-07T23:51:03;99096.72;;;22.12;59.96
75208;BME280;63795;55.684;37.864;2023-08-07T23:56:03;99086.41;;;22.06;60.74
